Time;durP1;ratioP1;P1;durP2;ratioP2;P2;SDS_P1;SDS_P2;PMS_P1;PMS_P2;Temp;Humidity;BMP_temperature;BMP_pressure;BME280_temperature;BME280_humidity;BME280_pressure;Samples;Min_cycle;Max_cycle;Signal;HPM_P1;HPM_P2
2024/04/08 00:00:40;;;;;;;4.80;1.48;;;21.90;93.50;;;;;;5001190;28;20026;-59
2024/04/08 00:03:06;;;;;;;6.15;1.60;;;21.80;93.50;;;;;;4997911;28;20093;-59
2024/04/08 00:05:31;;;;;;;4.68;1.60;;;21.80;93.60;;;;;;5003687;28;20121;-59
2024/04/08 00:07:57;;;;;;;4.88;1.63;;;21.80;93.60;;;;;;5003704;28;20033;-59
2024/04/08 00:10:23;;;;;;;5.18;1.77;;;21.80;93.70;;;;;;4997217;28;20358;-59
2024/04/08 00:12:48;;;;;;;4.68;1.55;;;21.80;93.70;;;;;;4998327;28;20650;-59
2024/04/08 00:15:17;;;;;;;4.72;1.70;;;21.80;93.70;;;;;;5000969;28;20062;-59
2024/04/08 00:17:44;;;;;;;5.60;1.63;;;21.80;93.70;;;;;;4998375;28;20113;-59
2024/04/08 00:20:11;;;;;;;5.10;1.50;;;21.80;93.80;;;;;;5002011;28;20054;-59
2024/04/08 00:22:40;;;;;;;5.63;1.83;;;21.80;93.80;;;;;;4995843;28;20034;-59
2024/04/08 00:25:09;;;;;;;4.15;1.35;;;21.80;93.90;;;;;;4997886;28;20028;-59
2024/04/08 00:27:35;;;;;;;5.22;1.52;;;21.80;93.90;;;;;;5001033;28;20028;-59
2024/04/08 00:30:03;;;;;;;4.53;1.40;;;21.80;93.90;;;;;;4998192;28;20054;-59
2024/04/08 00:32:29;;;;;;;5.72;1.60;;;21.80;94.00;;;;;;5001670;28;20029;-59
2024/04/08 00:34:54;;;;;;;6.05;1.60;;;21.80;94.00;;;;;;4999188;28;20030;-59
2024/04/08 00:37:20;;;;;;;4.18;1.50;;;21.80;94.10;;;;;;5002315;28;20033;-59
2024/04/08 00:39:46;;;;;;;4.82;1.67;;;21.80;94.10;;;;;;4995363;28;20037;-59
2024/04/08 00:42:11;;;;;;;3.58;1.35;;;21.70;94.10;;;;;;5001673;28;20030;-59
2024/04/08 00:44:37;;;;;;;6.60;1.65;;;21.80;94.20;;;;;;4997662;28;20478;-59
2024/04/08 00:47:03;;;;;;;7.03;1.73;;;21.80;94.20;;;;;;5001390;28;20034;-59
2024/04/08 00:49:30;;;;;;;5.63;1.50;;;21.70;94.30;;;;;;4997539;28;20088;-59
2024/04/08 00:51:57;;;;;;;5.40;1.60;;;21.70;94.30;;;;;;4996896;28;20051;-59
2024/04/08 00:54:28;;;;;;;7.30;1.73;;;21.70;94.30;;;;;;4999469;28;20037;-59
2024/04/08 00:56:59;;;;;;;6.18;1.60;;;21.70;94.40;;;;;;5000032;28;20913;-59
2024/04/08 00:59:27;;;;;;;5.00;1.65;;;21.70;94.30;;;;;;4999424;28;20109;-59
2024/04/08 01:01:53;;;;;;;5.95;1.73;;;21.70;94.40;;;;;;4999420;28;20022;-59
2024/04/08 01:04:19;;;;;;;4.15;1.35;;;21.70;94.40;;;;;;5002244;28;20046;-59
2024/04/08 01:06:45;;;;;;;5.90;1.70;;;21.70;94.40;;;;;;5008435;28;20021;-58
2024/04/08 01:09:11;;;;;;;6.88;1.80;;;21.70;94.40;;;;;;5003151;28;20132;-59
2024/04/08 01:11:37;;;;;;;5.18;1.55;;;21.70;94.50;;;;;;5003990;28;20033;-58
2024/04/08 01:14:03;;;;;;;5.38;1.55;;;21.70;94.50;;;;;;5000929;28;20515;-59
2024/04/08 01:16:29;;;;;;;5.20;1.80;;;21.70;94.50;;;;;;5004335;28;20109;-59
2024/04/08 01:18:54;;;;;;;6.63;1.70;;;21.70;94.50;;;;;;5001115;28;20030;-59
2024/04/08 01:21:20;;;;;;;5.88;1.88;;;21.70;94.50;;;;;;5001329;28;20377;-59
2024/04/08 01:23:45;;;;;;;4.57;1.50;;;21.70;94.60;;;;;;5002146;28;20422;-59
2024/04/08 01:26:11;;;;;;;4.50;1.52;;;21.70;94.60;;;;;;5001271;28;20372;-59
2024/04/08 01:28:39;;;;;;;3.88;1.42;;;21.70;94.60;;;;;;5003185;28;20038;-59
2024/04/08 01:31:07;;;;;;;6.32;1.60;;;21.70;94.70;;;;;;5000576;28;20034;-59
2024/04/08 01:33:33;;;;;;;4.78;1.40;;;21.70;94.70;;;;;;5003212;28;20050;-59
2024/04/08 01:36:03;;;;;;;5.88;1.50;;;21.60;94.70;;;;;;5008185;28;20424;-59
2024/04/08 01:38:30;;;;;;;4.78;1.45;;;21.60;94.70;;;;;;5007069;28;20076;-59
2024/04/08 01:40:56;;;;;;;3.85;1.35;;;21.70;94.80;;;;;;5008408;28;20043;-59
2024/04/08 01:43:25;;;;;;;5.95;1.90;;;21.60;94.80;;;;;;5009634;28;20029;-60
2024/04/08 01:45:52;;;;;;;4.50;1.65;;;21.60;94.80;;;;;;5006161;28;20034;-59
2024/04/08 01:48:18;;;;;;;5.60;1.65;;;21.60;94.80;;;;;;5008697;28;20029;-59
2024/04/08 01:50:44;;;;;;;5.45;1.50;;;21.60;94.80;;;;;;5006735;28;20034;-59
2024/04/08 01:53:10;;;;;;;5.93;1.77;;;21.60;94.80;;;;;;5007164;28;20100;-59
2024/04/08 01:55:35;;;;;;;5.80;1.42;;;21.60;94.80;;;;;;5007478;28;20065;-59
2024/04/08 01:58:01;;;;;;;5.47;1.48;;;21.60;94.80;;;;;;5006730;28;20030;-59
2024/04/08 02:00:26;;;;;;;6.47;1.63;;;21.60;94.90;;;;;;5006956;28;20102;-59
2024/04/08 02:02:54;;;;;;;6.50;1.73;;;21.60;94.90;;;;;;5004346;28;20029;-58
2024/04/08 02:05:20;;;;;;;5.03;1.67;;;21.60;94.90;;;;;;5006560;28;20042;-59
2024/04/08 02:07:45;;;;;;;5.45;1.60;;;21.60;95.00;;;;;;5007483;28;20370;-59
2024/04/08 02:10:11;;;;;;;4.78;1.60;;;21.60;95.00;;;;;;5005107;28;20025;-59
2024/04/08 02:12:37;;;;;;;5.20;1.50;;;21.60;95.00;;;;;;5005256;28;20030;-59
2024/04/08 02:15:03;;;;;;;4.05;1.40;;;21.60;95.00;;;;;;5007131;28;20060;-59
2024/04/08 02:17:29;;;;;;;5.60;1.50;;;21.60;95.00;;;;;;5008435;28;20087;-59
2024/04/08 02:19:55;;;;;;;5.75;1.70;;;21.60;95.00;;;;;;5006560;28;20490;-59
2024/04/08 02:22:21;;;;;;;5.45;1.63;;;21.50;94.90;;;;;;5007154;28;20541;-59
2024/04/08 02:24:46;;;;;;;4.40;1.40;;;21.50;95.00;;;;;;5004755;28;20144;-59
2024/04/08 02:27:12;;;;;;;5.13;1.42;;;21.50;95.00;;;;;;5007305;28;20076;-59
2024/04/08 02:29:38;;;;;;;5.32;1.50;;;21.50;95.00;;;;;;5006721;28;20133;-59
2024/04/08 02:32:04;;;;;;;4.82;1.50;;;21.50;95.10;;;;;;5006418;28;20025;-59
2024/04/08 02:34:31;;;;;;;4.13;1.50;;;21.50;95.10;;;;;;5007253;28;20069;-58
2024/04/08 02:36:56;;;;;;;5.25;1.60;;;21.50;95.10;;;;;;5006220;28;20022;-58
2024/04/08 02:39:22;;;;;;;5.18;1.70;;;21.50;95.20;;;;;;5008161;28;20026;-59
2024/04/08 02:41:48;;;;;;;4.93;1.50;;;21.50;95.20;;;;;;5006666;28;20033;-59
2024/04/08 02:44:13;;;;;;;4.88;1.60;;;21.50;95.20;;;;;;5006843;28;20022;-59
2024/04/08 02:46:39;;;;;;;5.70;1.80;;;21.50;95.20;;;;;;5005705;28;20033;-58
2024/04/08 02:49:05;;;;;;;4.97;1.33;;;21.50;95.20;;;;;;5008276;28;20488;-58
2024/04/08 02:51:30;;;;;;;4.85;1.63;;;21.50;95.20;;;;;;5006871;28;20399;-59
2024/04/08 02:53:56;;;;;;;5.43;1.48;;;21.50;95.20;;;;;;5005548;28;20065;-58
2024/04/08 02:56:22;;;;;;;6.68;1.67;;;21.50;95.20;;;;;;5006846;28;20362;-59
2024/04/08 02:58:47;;;;;;;6.88;1.73;;;21.50;95.30;;;;;;5006098;28;20092;-58
2024/04/08 03:01:14;;;;;;;5.80;1.75;;;21.50;95.30;;;;;;5007656;28;20105;-59
2024/04/08 03:03:40;;;;;;;4.63;1.60;;;21.50;95.50;;;;;;5005681;28;20029;-59
2024/04/08 03:06:15;;;;;;;4.50;1.27;;;21.40;95.20;;;;;;5005592;28;20044;-58
2024/04/08 03:08:42;;;;;;;4.57;1.30;;;21.50;95.30;;;;;;5007901;28;20097;-59
2024/04/08 03:11:09;;;;;;;4.95;1.50;;;21.40;95.30;;;;;;5004055;28;20108;-59
2024/04/08 03:13:39;;;;;;;6.38;1.80;;;21.40;95.30;;;;;;5004696;28;20044;-58
2024/04/08 03:16:05;;;;;;;5.05;1.40;;;21.40;95.20;;;;;;5004342;28;20421;-59
2024/04/08 03:18:33;;;;;;;6.90;1.70;;;21.40;95.40;;;;;;5003182;28;20065;-58
2024/04/08 03:21:01;;;;;;;5.22;1.40;;;21.40;95.10;;;;;;5002648;28;20105;-59
2024/04/08 03:23:27;;;;;;;5.97;1.50;;;21.40;95.20;;;;;;5006143;28;20029;-59
2024/04/08 03:26:02;;;;;;;5.28;1.38;;;21.40;95.10;;;;;;5002871;28;20025;-59
2024/04/08 03:28:31;;;;;;;4.28;1.42;;;21.40;95.00;;;;;;5004895;28;20026;-58
2024/04/08 03:30:57;;;;;;;4.68;1.33;;;21.40;94.90;;;;;;5004275;28;20038;-58
2024/04/08 03:33:26;;;;;;;3.92;1.20;;;21.40;94.90;;;;;;5005553;28;20044;-58
2024/04/08 03:35:52;;;;;;;4.85;1.40;;;21.40;94.80;;;;;;5004682;28;20022;-59
2024/04/08 03:38:19;;;;;;;4.45;1.40;;;21.40;94.70;;;;;;5006807;28;20362;-58
2024/04/08 03:40:45;;;;;;;5.88;1.60;;;21.40;94.60;;;;;;5006436;28;20021;-59
2024/04/08 03:43:11;;;;;;;5.95;1.40;;;21.40;94.50;;;;;;5004867;28;20030;-59
2024/04/08 03:45:41;;;;;;;5.70;1.63;;;21.40;94.50;;;;;;5007464;28;20041;-59
2024/04/08 03:48:07;;;;;;;6.80;1.75;;;21.40;94.50;;;;;;5005734;28;20109;-59
2024/04/08 03:50:37;;;;;;;4.20;1.30;;;21.50;94.40;;;;;;5004213;28;20105;-59
2024/04/08 03:53:05;;;;;;;3.90;1.40;;;21.40;94.40;;;;;;5003799;28;20029;-59
2024/04/08 03:55:30;;;;;;;4.95;1.30;;;21.50;94.40;;;;;;5005799;28;20102;-59
2024/04/08 03:57:57;;;;;;;4.18;1.30;;;21.40;94.30;;;;;;5006490;28;20089;-59
2024/04/08 04:00:24;;;;;;;3.42;1.08;;;21.40;94.30;;;;;;5004657;28;20053;-58
2024/04/08 04:02:53;;;;;;;4.38;1.42;;;21.40;94.30;;;;;;5003882;28;20026;-59
2024/04/08 04:05:19;;;;;;;4.75;1.38;;;21.40;94.20;;;;;;5002355;28;20084;-59
2024/04/08 04:07:45;;;;;;;4.25;1.30;;;21.40;94.20;;;;;;5003588;28;20105;-59
2024/04/08 04:10:11;;;;;;;6.22;1.50;;;21.40;94.20;;;;;;5002914;28;20155;-59
2024/04/08 04:12:38;;;;;;;7.93;2.30;;;21.40;94.70;;;;;;4999815;28;20029;-59
2024/04/08 04:15:12;;;;;;;9.50;2.92;;;21.40;95.10;;;;;;5002543;28;20028;-59
2024/04/08 04:17:41;;;;;;;5.13;1.98;;;21.40;95.70;;;;;;5003876;28;20424;-59
2024/04/08 04:20:12;;;;;;;4.03;1.45;;;21.50;96.10;;;;;;5002499;28;20018;-59
2024/04/08 04:22:38;;;;;;;6.05;1.60;;;21.50;96.20;;;;;;5001028;28;20027;-59
2024/04/08 04:25:04;;;;;;;4.88;1.30;;;21.50;96.20;;;;;;5000510;28;20113;-59
2024/04/08 04:27:32;;;;;;;4.43;1.33;;;21.50;96.20;;;;;;5003712;28;21281;-59
2024/04/08 04:29:58;;;;;;;5.85;1.30;;;21.50;96.20;;;;;;5000431;28;20081;-59
2024/04/08 04:32:24;;;;;;;6.88;1.27;;;21.50;96.20;;;;;;4998956;28;20046;-59
2024/04/08 04:34:50;;;;;;;5.38;1.35;;;21.50;96.10;;;;;;5002619;28;20026;-59
2024/04/08 04:37:16;;;;;;;4.97;1.17;;;21.50;96.00;;;;;;4997492;28;20092;-58
2024/04/08 04:39:42;;;;;;;5.10;1.67;;;21.60;95.90;;;;;;5002740;28;20022;-59
2024/04/08 04:42:07;;;;;;;3.25;1.10;;;21.60;95.70;;;;;;5005057;28;20022;-59
2024/04/08 04:44:33;;;;;;;4.05;1.13;;;21.60;95.50;;;;;;5007689;28;20037;-59
2024/04/08 04:47:01;;;;;;;3.28;1.17;;;21.60;95.30;;;;;;5003912;28;20101;-59
2024/04/08 04:49:26;;;;;;;4.75;1.50;;;21.60;95.20;;;;;;5006119;28;20089;-59
2024/04/08 04:51:52;;;;;;;5.07;1.30;;;21.60;95.10;;;;;;5004002;28;20026;-59
2024/04/08 04:54:18;;;;;;;4.90;1.30;;;21.60;95.00;;;;;;5007348;28;20019;-59
2024/04/08 04:56:43;;;;;;;5.45;1.27;;;21.60;94.90;;;;;;5004982;28;20029;-59
2024/04/08 04:59:09;;;;;;;3.78;1.30;;;21.60;94.90;;;;;;5005093;28;20694;-59
2024/04/08 05:01:35;;;;;;;3.47;1.10;;;21.70;94.90;;;;;;5007425;28;20030;-60
2024/04/08 05:04:00;;;;;;;3.15;1.05;;;21.60;94.80;;;;;;5005026;28;20142;-59
2024/04/08 05:06:26;;;;;;;3.33;1.15;;;21.60;94.90;;;;;;5008977;28;20480;-59
2024/04/08 05:08:51;;;;;;;4.28;1.02;;;21.60;94.90;;;;;;5009054;28;20038;-59
2024/04/08 05:11:17;;;;;;;4.97;1.30;;;21.60;94.80;;;;;;5006143;28;20018;-59
2024/04/08 05:13:43;;;;;;;4.43;1.00;;;21.60;94.90;;;;;;5005371;28;20034;-59
2024/04/08 05:16:11;;;;;;;4.10;1.20;;;21.60;94.80;;;;;;5003937;28;20068;-60
2024/04/08 05:18:37;;;;;;;2.90;1.05;;;21.60;94.70;;;;;;5004197;28;20018;-59
2024/04/08 05:21:03;;;;;;;2.80;1.10;;;21.60;94.70;;;;;;5002117;28;20668;-59
2024/04/08 05:23:28;;;;;;;7.10;1.10;;;21.60;94.70;;;;;;5006361;28;20026;-59
2024/04/08 05:25:55;;;;;;;4.47;1.17;;;21.60;94.70;;;;;;5007805;28;20026;-59
2024/04/08 05:28:21;;;;;;;4.55;1.02;;;21.60;94.70;;;;;;5003309;28;20027;-59
2024/04/08 05:30:48;;;;;;;3.90;1.27;;;21.60;94.70;;;;;;5002846;28;20449;-59
2024/04/08 05:33:14;;;;;;;3.92;1.10;;;21.60;94.70;;;;;;4997258;28;20037;-59
2024/04/08 05:35:41;;;;;;;4.18;1.05;;;21.60;94.60;;;;;;5001228;28;20045;-59
2024/04/08 05:38:07;;;;;;;5.38;1.10;;;21.60;94.70;;;;;;4999656;28;20022;-59
2024/04/08 05:40:39;;;;;;;5.20;1.10;;;21.60;94.60;;;;;;5002883;28;20432;-59
2024/04/08 05:43:05;;;;;;;5.93;1.30;;;21.60;94.70;;;;;;4999748;28;20117;-59
2024/04/08 05:45:32;;;;;;;5.80;1.20;;;21.60;94.90;;;;;;5003403;28;20037;-59
2024/04/08 05:47:58;;;;;;;6.18;1.15;;;21.60;94.80;;;;;;5001871;28;20045;-59
2024/04/08 05:50:24;;;;;;;9.85;2.25;;;21.60;94.90;;;;;;5004851;28;20401;-59
2024/04/08 05:52:50;;;;;;;6.28;1.27;;;21.60;94.90;;;;;;5002195;28;20520;-59
2024/04/08 05:55:16;;;;;;;8.77;1.30;;;21.60;94.80;;;;;;5004497;28;20069;-59
2024/04/08 05:57:42;;;;;;;7.70;1.20;;;21.60;94.90;;;;;;5000178;28;20053;-59
2024/04/08 06:00:11;;;;;;;5.15;1.30;;;21.60;95.00;;;;;;4996645;28;20485;-59
2024/04/08 06:02:37;;;;;;;4.95;1.27;;;21.60;95.40;;;;;;4999701;28;20084;-59
2024/04/08 06:05:03;;;;;;;4.13;1.20;;;21.60;95.50;;;;;;5001553;28;20018;-59
2024/04/08 06:07:29;;;;;;;6.97;1.60;;;21.60;95.30;;;;;;5004480;28;20044;-59
2024/04/08 06:09:55;;;;;;;6.25;1.42;;;21.60;95.20;;;;;;5002914;28;20030;-59
2024/04/08 06:12:21;;;;;;;6.68;1.48;;;21.60;95.10;;;;;;5000675;28;20087;-58
2024/04/08 06:14:48;;;;;;;6.88;1.35;;;21.60;94.90;;;;;;4998701;28;20118;-59
2024/04/08 06:17:14;;;;;;;5.15;1.27;;;21.60;94.80;;;;;;4997673;28;20030;-58
2024/04/08 06:19:40;;;;;;;5.53;1.45;;;21.60;94.70;;;;;;4998077;28;20037;-59
2024/04/08 06:22:08;;;;;;;5.15;1.42;;;21.60;94.60;;;;;;4999255;28;20018;-59
2024/04/08 06:24:34;;;;;;;4.25;1.20;;;21.60;94.60;;;;;;4995324;28;20033;-58
2024/04/08 06:27:00;;;;;;;4.93;1.20;;;21.60;94.50;;;;;;5001081;28;20048;-59
2024/04/08 06:29:26;;;;;;;5.45;1.20;;;21.60;94.50;;;;;;5004106;28;20045;-59
2024/04/08 06:31:51;;;;;;;4.25;1.13;;;21.60;94.50;;;;;;5000338;28;20042;-59
2024/04/08 06:34:19;;;;;;;5.25;1.35;;;21.60;94.50;;;;;;5001567;28;20074;-59
2024/04/08 06:36:47;;;;;;;4.43;1.10;;;21.60;94.50;;;;;;5001288;28;20038;-58
2024/04/08 06:39:12;;;;;;;5.05;1.40;;;21.60;94.40;;;;;;4997540;28;20058;-59
2024/04/08 06:41:40;;;;;;;3.40;1.15;;;21.60;94.40;;;;;;4998501;28;20023;-59
2024/04/08 06:44:05;;;;;;;3.13;1.10;;;21.60;94.40;;;;;;4998608;28;20022;-59
2024/04/08 06:46:31;;;;;;;4.10;1.25;;;21.60;94.40;;;;;;5002300;28;20042;-59
2024/04/08 06:48:57;;;;;;;5.55;1.17;;;21.60;94.40;;;;;;4999281;28;20037;-59
2024/04/08 06:51:22;;;;;;;4.50;1.30;;;21.70;94.40;;;;;;4999568;28;20101;-59
2024/04/08 06:53:50;;;;;;;4.05;1.10;;;21.70;94.40;;;;;;5000985;28;20022;-59
2024/04/08 06:56:16;;;;;;;3.53;1.10;;;21.70;94.40;;;;;;4999898;28;20401;-59
2024/04/08 06:58:41;;;;;;;4.15;1.30;;;21.70;94.40;;;;;;5002133;28;20026;-58
2024/04/08 07:01:07;;;;;;;3.22;1.20;;;21.70;94.30;;;;;;4998306;28;20149;-59
2024/04/08 07:03:33;;;;;;;6.07;1.25;;;21.70;94.30;;;;;;5002162;28;20026;-59
2024/04/08 07:05:59;;;;;;;7.18;1.25;;;21.70;94.20;;;;;;5000911;28;20508;-59
2024/04/08 07:08:24;;;;;;;3.88;1.20;;;21.70;94.20;;;;;;5007126;28;20505;-59
2024/04/08 07:10:50;;;;;;;4.07;1.30;;;21.70;94.20;;;;;;4997960;28;20030;-59
2024/04/08 07:13:17;;;;;;;3.85;1.08;;;21.70;94.20;;;;;;5000607;28;20026;-59
2024/04/08 07:15:42;;;;;;;4.80;1.33;;;21.70;94.10;;;;;;4999686;28;20034;-59
2024/04/08 07:18:08;;;;;;;6.28;1.48;;;21.80;94.10;;;;;;5001359;28;20037;-59
2024/04/08 07:20:34;;;;;;;3.35;1.10;;;21.80;94.10;;;;;;4997212;28;20027;-59
2024/04/08 07:23:00;;;;;;;4.47;1.30;;;21.80;94.10;;;;;;5002201;28;20497;-59
2024/04/08 07:25:25;;;;;;;6.10;1.38;;;21.80;94.00;;;;;;4999931;28;20026;-59
2024/04/08 07:27:51;;;;;;;4.95;1.20;;;21.80;94.10;;;;;;5008146;28;20037;-59
2024/04/08 07:30:16;;;;;;;4.28;1.20;;;21.80;94.00;;;;;;5000279;28;20036;-59
2024/04/08 07:32:42;;;;;;;3.75;1.30;;;21.90;94.00;;;;;;5000327;28;20050;-60
2024/04/08 07:35:20;;;;;;;4.35;1.20;;;21.90;94.00;;;;;;5001233;28;20060;-59
2024/04/08 07:37:46;;;;;;;4.75;1.40;;;21.90;93.90;;;;;;5002112;28;20537;-60
2024/04/08 07:40:12;;;;;;;2.45;0.98;;;21.90;93.90;;;;;;4996762;28;20022;-60
2024/04/08 07:42:39;;;;;;;3.47;1.30;;;21.90;93.90;;;;;;4999440;28;20030;-59
2024/04/08 07:45:05;;;;;;;3.33;1.20;;;21.90;93.90;;;;;;5001385;28;20042;-59
2024/04/08 07:47:30;;;;;;;4.00;1.20;;;21.90;93.90;;;;;;4999583;28;20035;-60
2024/04/08 07:49:59;;;;;;;4.45;1.15;;;21.90;93.90;;;;;;5001834;28;20103;-60
2024/04/08 07:52:24;;;;;;;5.43;1.50;;;21.90;93.90;;;;;;4998092;28;20088;-60
2024/04/08 07:54:50;;;;;;;4.18;1.20;;;21.90;93.90;;;;;;5001091;28;20023;-60
2024/04/08 07:57:15;;;;;;;3.30;1.20;;;22.00;93.90;;;;;;4999779;28;20030;-60
2024/04/08 07:59:41;;;;;;;2.60;1.00;;;22.00;93.90;;;;;;4999989;28;20429;-59
2024/04/08 08:02:07;;;;;;;5.93;1.35;;;22.00;93.90;;;;;;5000532;28;20076;-59
2024/04/08 08:04:32;;;;;;;4.97;1.40;;;22.00;93.80;;;;;;4998941;28;20158;-59
2024/04/08 08:06:58;;;;;;;4.57;1.25;;;22.00;93.80;;;;;;5006397;28;20080;-60
2024/04/08 08:09:24;;;;;;;6.53;1.58;;;22.00;93.80;;;;;;4994449;28;20052;-59
2024/04/08 08:11:49;;;;;;;3.70;1.10;;;22.00;93.80;;;;;;5000912;28;20084;-58
2024/04/08 08:14:15;;;;;;;4.53;1.20;;;22.00;93.80;;;;;;5003003;28;20076;-59
2024/04/08 08:16:42;;;;;;;5.10;1.38;;;22.00;93.80;;;;;;5003889;28;20026;-60
2024/04/08 08:19:08;;;;;;;3.80;1.20;;;22.00;93.80;;;;;;5004542;28;20045;-59
2024/04/08 08:21:33;;;;;;;5.00;1.20;;;22.10;93.80;;;;;;5001593;28;20019;-59
2024/04/08 08:23:59;;;;;;;5.25;1.40;;;22.10;93.80;;;;;;5005177;28;20022;-60
2024/04/08 08:26:28;;;;;;;5.00;1.30;;;22.00;93.70;;;;;;5002475;28;20030;-59
2024/04/08 08:28:54;;;;;;;4.85;1.30;;;22.10;93.80;;;;;;5005435;28;20421;-59
2024/04/08 08:31:20;;;;;;;6.93;1.70;;;22.10;93.80;;;;;;5002133;28;20038;-60
2024/04/08 08:33:46;;;;;;;6.53;1.50;;;22.10;93.80;;;;;;5004533;28;20512;-59
2024/04/08 08:36:11;;;;;;;3.53;1.20;;;22.10;93.80;;;;;;5003144;28;20030;-59
2024/04/08 08:38:37;;;;;;;3.70;1.20;;;22.10;93.80;;;;;;5002865;28;20488;-59
2024/04/08 08:41:07;;;;;;;3.90;1.48;;;22.10;93.70;;;;;;5000803;28;20026;-59
2024/04/08 08:43:37;;;;;;;3.63;1.23;;;22.10;93.80;;;;;;5004280;28;20563;-60
2024/04/08 08:46:05;;;;;;;4.70;1.30;;;22.10;93.80;;;;;;5002164;28;20077;-59
2024/04/08 08:48:31;;;;;;;4.32;1.50;;;22.10;93.80;;;;;;5005018;28;20046;-59
2024/04/08 08:50:58;;;;;;;7.47;2.05;;;22.10;93.80;;;;;;5000292;28;20037;-59
2024/04/08 08:53:23;;;;;;;5.35;1.55;;;22.20;93.90;;;;;;5001802;28;20084;-59
2024/04/08 08:55:50;;;;;;;5.18;1.50;;;22.20;93.90;;;;;;5004627;28;20466;-59
2024/04/08 08:58:16;;;;;;;4.43;1.50;;;22.20;93.90;;;;;;5002216;28;20030;-60
2024/04/08 09:00:42;;;;;;;4.07;1.63;;;22.20;93.90;;;;;;5003603;28;20030;-59
2024/04/08 09:03:18;;;;;;;4.90;1.33;;;22.20;93.90;;;;;;5001163;28;20033;-60
2024/04/08 09:05:47;;;;;;;8.07;1.45;;;22.20;93.90;;;;;;5005066;28;20377;-60
2024/04/08 09:08:12;;;;;;;5.65;1.50;;;22.20;93.80;;;;;;5005665;28;20026;-59
2024/04/08 09:10:45;;;;;;;6.75;1.70;;;22.20;93.80;;;;;;5001135;28;20026;-59
2024/04/08 09:13:25;;;;;;;3.95;1.40;;;22.20;93.90;;;;;;5003154;28;20022;-60
2024/04/08 09:15:51;;;;;;;4.47;1.40;;;22.20;93.90;;;;;;5000563;28;20058;-60
2024/04/08 09:18:17;;;;;;;4.22;1.52;;;22.30;94.10;;;;;;5003237;28;20108;-59
2024/04/08 09:20:43;;;;;;;4.13;1.38;;;22.30;93.90;;;;;;5000323;28;21059;-59
2024/04/08 09:23:09;;;;;;;4.07;1.38;;;22.30;93.90;;;;;;5004973;28;20022;-59
2024/04/08 09:25:36;;;;;;;3.97;1.40;;;22.30;93.90;;;;;;5004879;28;20500;-59
2024/04/08 09:28:02;;;;;;;3.65;1.40;;;22.30;93.80;;;;;;5004534;28;20030;-60
2024/04/08 09:30:28;;;;;;;5.95;1.50;;;22.30;93.80;;;;;;5001280;28;20553;-60
2024/04/08 09:32:54;;;;;;;3.88;1.40;;;22.30;93.90;;;;;;5004118;28;20042;-59
2024/04/08 09:35:20;;;;;;;5.20;1.40;;;22.30;93.90;;;;;;4999920;28;20031;-60
2024/04/08 09:37:47;;;;;;;3.92;1.40;;;22.30;93.90;;;;;;5003569;28;20057;-59
2024/04/08 09:40:14;;;;;;;4.32;1.42;;;22.30;93.90;;;;;;5001388;28;20576;-59
2024/04/08 09:42:44;;;;;;;3.85;1.30;;;22.30;93.80;;;;;;5004015;28;20022;-59
2024/04/08 09:45:09;;;;;;;4.13;1.30;;;22.30;93.80;;;;;;5001853;28;20054;-60
2024/04/08 09:47:37;;;;;;;3.92;1.40;;;22.30;93.80;;;;;;5001675;28;20453;-60
2024/04/08 09:50:04;;;;;;;4.88;1.35;;;22.30;93.70;;;;;;5000791;28;20022;-59
2024/04/08 09:52:30;;;;;;;4.63;1.35;;;22.30;93.70;;;;;;5000789;28;20087;-59
2024/04/08 09:54:56;;;;;;;4.30;1.60;;;22.40;93.70;;;;;;4999884;28;20026;-59
2024/04/08 09:57:29;;;;;;;4.28;1.40;;;22.40;93.80;;;;;;5002304;28;20034;-60
2024/04/08 09:59:56;;;;;;;6.03;1.55;;;22.40;93.70;;;;;;4999766;28;20022;-59
2024/04/08 10:02:37;;;;;;;4.25;1.50;;;22.40;93.60;;;;;;5002657;28;20381;-59
2024/04/08 10:05:06;;;;;;;4.60;1.45;;;22.40;93.50;;;;;;5000945;28;20019;-59
2024/04/08 10:07:33;;;;;;;4.70;1.53;;;22.40;93.40;;;;;;5003304;28;20041;-59
2024/04/08 10:10:03;;;;;;;4.40;1.45;;;22.40;93.40;;;;;;4999224;28;20420;-59
2024/04/08 10:12:33;;;;;;;5.65;1.67;;;22.40;93.40;;;;;;5002089;28;20022;-60
2024/04/08 10:15:13;;;;;;;3.42;1.50;;;22.40;93.30;;;;;;5001586;28;20030;-59
2024/04/08 10:17:42;;;;;;;4.07;1.42;;;22.40;93.30;;;;;;5000558;28;20084;-60
2024/04/08 10:20:10;;;;;;;4.22;1.45;;;22.50;93.20;;;;;;5001024;28;20038;-59
2024/04/08 10:22:39;;;;;;;5.35;1.75;;;22.50;93.20;;;;;;4999314;28;20022;-59
2024/04/08 10:25:23;;;;;;;4.45;1.50;;;22.50;93.20;;;;;;5000352;28;20030;-59
2024/04/08 10:28:07;;;;;;;4.38;1.55;;;22.50;93.20;;;;;;5000932;28;20033;-59
2024/04/08 10:30:37;;;;;;;4.60;1.70;;;22.50;93.20;;;;;;5001260;28;20037;-59
2024/04/08 10:33:03;;;;;;;4.78;1.55;;;22.50;93.20;;;;;;4998436;28;20728;-59
2024/04/08 10:35:29;;;;;;;4.10;1.42;;;22.50;93.20;;;;;;5001113;28;20022;-59
2024/04/08 10:37:55;;;;;;;5.45;1.70;;;22.50;93.10;;;;;;5002787;28;20712;-59
2024/04/08 10:40:21;;;;;;;4.43;1.70;;;22.50;93.10;;;;;;4999801;28;20029;-59
2024/04/08 10:42:48;;;;;;;5.32;1.88;;;22.50;93.10;;;;;;4999163;28;20026;-59
2024/04/08 10:45:14;;;;;;;5.03;1.70;;;22.50;93.30;;;;;;4996493;28;20025;-59
2024/04/08 10:47:39;;;;;;;5.07;1.63;;;22.50;93.50;;;;;;5001889;28;20080;-59
2024/04/08 10:50:09;;;;;;;4.18;1.50;;;22.50;93.20;;;;;;4999091;28;20632;-59
2024/04/08 10:52:39;;;;;;;5.65;1.60;;;22.50;93.20;;;;;;5000215;28;20429;-60
2024/04/08 10:55:05;;;;;;;5.38;1.63;;;22.60;93.20;;;;;;4999495;28;20048;-59
2024/04/08 10:57:30;;;;;;;4.40;1.40;;;22.60;93.20;;;;;;5000840;28;20030;-60
2024/04/08 10:59:56;;;;;;;5.18;1.60;;;22.60;93.20;;;;;;5000972;28;20053;-60
2024/04/08 11:02:24;;;;;;;5.30;1.75;;;22.60;93.20;;;;;;4998320;28;20030;-60
2024/04/08 11:04:51;;;;;;;4.75;1.60;;;22.60;93.20;;;;;;5001707;28;20053;-60
2024/04/08 11:07:17;;;;;;;4.68;1.88;;;22.60;93.10;;;;;;5008463;28;20075;-59
2024/04/08 11:09:42;;;;;;;5.32;1.80;;;22.60;93.20;;;;;;4996336;28;20030;-59
2024/04/08 11:12:12;;;;;;;4.80;1.63;;;22.60;93.20;;;;;;5001131;28;20029;-60
2024/04/08 11:14:37;;;;;;;5.15;1.92;;;22.60;93.20;;;;;;4998916;28;20192;-60
2024/04/08 11:17:14;;;;;;;4.50;1.70;;;22.70;93.10;;;;;;5000690;28;20545;-60
2024/04/08 11:19:42;;;;;;;4.78;1.50;;;22.70;93.10;;;;;;4998821;28;20023;-59
2024/04/08 11:22:11;;;;;;;5.30;1.60;;;22.70;93.00;;;;;;4999768;28;20123;-59
2024/04/08 11:24:41;;;;;;;5.57;1.67;;;22.70;93.00;;;;;;4997790;28;20022;-59
2024/04/08 11:27:10;;;;;;;4.03;1.52;;;22.70;93.00;;;;;;5000534;28;20396;-59
2024/04/08 11:29:40;;;;;;;4.70;1.60;;;22.70;93.00;;;;;;4998312;28;20520;-59
2024/04/08 11:32:08;;;;;;;5.38;1.98;;;22.70;92.90;;;;;;4997686;28;20482;-59
2024/04/08 11:34:34;;;;;;;6.82;1.65;;;22.70;92.90;;;;;;5000831;28;20049;-59
2024/04/08 11:37:03;;;;;;;5.18;1.77;;;22.70;92.90;;;;;;5001444;28;20038;-59
2024/04/08 11:39:28;;;;;;;5.47;1.73;;;22.70;92.90;;;;;;4996393;28;20030;-59
2024/04/08 11:41:54;;;;;;;5.90;2.33;;;22.80;93.00;;;;;;4999596;28;20029;-59
2024/04/08 11:44:39;;;;;;;4.78;1.70;;;22.80;93.00;;;;;;4998935;28;20466;-60
2024/04/08 11:47:05;;;;;;;4.88;1.60;;;22.80;92.90;;;;;;5000903;28;20018;-60
2024/04/08 11:49:31;;;;;;;6.05;1.88;;;22.80;92.80;;;;;;4998402;28;20384;-59
2024/04/08 11:51:57;;;;;;;5.28;1.67;;;22.80;92.80;;;;;;4998873;28;20397;-60
2024/04/08 11:54:23;;;;;;;4.93;1.60;;;22.80;92.80;;;;;;4999376;28;20029;-59
2024/04/08 11:56:49;;;;;;;4.65;1.60;;;22.80;92.80;;;;;;4999293;28;20092;-60
2024/04/08 11:59:15;;;;;;;5.63;1.90;;;22.80;92.70;;;;;;5000148;28;20065;-59
2024/04/08 12:01:42;;;;;;;4.65;1.77;;;22.80;92.70;;;;;;4997687;28;20068;-59
2024/04/08 12:04:11;;;;;;;6.10;1.60;;;22.80;92.70;;;;;;4997764;28;20026;-59
2024/04/08 12:06:36;;;;;;;4.17;1.47;;;22.80;92.70;;;;;;5003127;28;20614;-59
2024/04/08 12:09:03;;;;;;;6.93;1.60;;;22.80;92.60;;;;;;5000230;28;20034;-60
2024/04/08 12:11:28;;;;;;;5.40;1.70;;;22.80;92.80;;;;;;4997017;28;20030;-59
2024/04/08 12:13:54;;;;;;;4.53;1.70;;;22.80;92.60;;;;;;5000034;28;20026;-60
2024/04/08 12:16:19;;;;;;;5.50;1.73;;;22.80;92.60;;;;;;4998553;28;20091;-59
2024/04/08 12:18:45;;;;;;;5.15;1.77;;;22.90;92.60;;;;;;4998674;28;20065;-60
2024/04/08 12:21:11;;;;;;;5.70;1.90;;;22.90;92.50;;;;;;4998850;28;20549;-59
2024/04/08 12:23:37;;;;;;;4.88;1.58;;;22.90;92.50;;;;;;4997289;28;20018;-59
2024/04/08 12:26:02;;;;;;;6.38;1.63;;;22.90;92.40;;;;;;5007321;28;20460;-59
2024/04/08 12:28:28;;;;;;;6.03;2.13;;;22.90;92.40;;;;;;4996466;28;20066;-59
2024/04/08 12:30:54;;;;;;;4.85;1.63;;;22.90;92.40;;;;;;4998720;28;20037;-59
2024/04/08 12:33:22;;;;;;;5.18;1.90;;;22.90;92.40;;;;;;4998764;28;20572;-60
2024/04/08 12:35:48;;;;;;;5.78;1.80;;;22.90;92.30;;;;;;5000333;28;20034;-59
2024/04/08 12:38:14;;;;;;;4.88;1.80;;;22.90;92.20;;;;;;4999383;28;20080;-59
2024/04/08 12:40:40;;;;;;;6.03;1.85;;;23.00;92.20;;;;;;4994921;28;20059;-60
2024/04/08 12:43:06;;;;;;;5.85;1.70;;;23.00;92.20;;;;;;5000607;28;20122;-59
2024/04/08 12:45:32;;;;;;;5.28;1.52;;;23.00;92.20;;;;;;4997011;28;20105;-60